createdAt,value
2023-03-10T00:01:59.719Z,19.42
2023-03-10T00:05:22.796Z,14.95
2023-03-10T00:08:46.665Z,15.02
2023-03-10T00:12:10.346Z,17.27
2023-03-10T00:15:32.832Z,16.40
2023-03-10T00:18:55.699Z,17.70
2023-03-10T00:22:20.584Z,18.15
2023-03-10T00:25:44.631Z,15.07
2023-03-10T00:29:07.035Z,14.80
2023-03-10T00:32:30.198Z,15.02
2023-03-10T00:36:05.350Z,15.40
2023-03-10T00:39:28.670Z,16.62
2023-03-10T00:42:52.518Z,14.95
2023-03-10T00:46:15.101Z,15.30
2023-03-10T00:49:37.570Z,14.45
2023-03-10T00:53:00.698Z,14.35
2023-03-10T00:56:23.746Z,18.87
2023-03-10T00:59:50.698Z,15.93
2023-03-10T01:03:13.277Z,16.77
2023-03-10T01:06:36.745Z,15.90
2023-03-10T01:10:01.991Z,18.00
2023-03-10T01:13:24.702Z,13.18
2023-03-10T01:16:48.588Z,17.27
2023-03-10T01:20:15.266Z,14.77
2023-03-10T01:23:37.852Z,14.98
2023-03-10T01:27:01.006Z,15.43
2023-03-10T01:30:23.703Z,13.13
2023-03-10T01:33:48.153Z,16.12
2023-03-10T01:37:10.636Z,13.50
2023-03-10T01:40:33.243Z,12.40
2023-03-10T01:43:56.113Z,15.27
2023-03-10T01:47:19.272Z,13.43
2023-03-10T01:50:43.370Z,16.65
2023-03-10T01:54:09.687Z,15.43
2023-03-10T01:57:33.668Z,14.73
2023-03-10T02:00:56.518Z,16.52
2023-03-10T02:04:23.388Z,15.55
2023-03-10T02:07:47.380Z,15.20
2023-03-10T02:11:10.180Z,16.10
2023-03-10T02:14:33.086Z,16.67
2023-03-10T02:17:55.509Z,21.02
2023-03-10T02:21:22.149Z,20.42
2023-03-10T02:24:48.388Z,25.33
2023-03-10T02:28:12.582Z,28.38
2023-03-10T02:31:35.310Z,22.90
2023-03-10T02:34:58.526Z,24.25
2023-03-10T02:38:21.669Z,20.25
2023-03-10T02:41:45.578Z,20.10
2023-03-10T02:45:11.200Z,16.67
2023-03-10T02:48:35.372Z,15.07
2023-03-10T02:51:58.755Z,15.00
2023-03-10T02:55:22.726Z,15.07
2023-03-10T02:58:45.805Z,16.23
2023-03-10T03:02:10.173Z,13.95
2023-03-10T03:05:32.668Z,12.10
2023-03-10T03:08:55.760Z,11.20
2023-03-10T03:12:18.829Z,12.80
2023-03-10T03:15:42.670Z,14.57
2023-03-10T03:19:06.640Z,18.52
2023-03-10T03:22:29.657Z,13.68
2023-03-10T03:25:52.100Z,10.82
2023-03-10T03:29:15.658Z,11.90
2023-03-10T03:32:38.373Z,11.37
2023-03-10T03:36:02.851Z,11.68
2023-03-10T03:39:25.642Z,11.68
2023-03-10T03:42:50.316Z,12.02
2023-03-10T03:46:12.998Z,11.73
2023-03-10T03:49:36.549Z,14.50
2023-03-10T03:53:00.716Z,13.25
2023-03-10T03:56:23.682Z,12.00
2023-03-10T03:59:46.142Z,11.02
2023-03-10T04:03:09.580Z,18.48
2023-03-10T04:06:32.284Z,13.73
2023-03-10T04:09:55.983Z,13.80
2023-03-10T04:13:19.016Z,10.95
2023-03-10T04:16:41.959Z,12.82
2023-03-10T04:20:08.740Z,9.30
2023-03-10T04:23:32.158Z,11.87
2023-03-10T04:26:56.530Z,11.23
2023-03-10T04:30:24.107Z,9.73
2023-03-10T04:33:47.147Z,11.20
2023-03-10T04:37:09.755Z,12.30
2023-03-10T04:40:33.408Z,10.70
2023-03-10T04:43:57.869Z,11.27
2023-03-10T04:47:20.974Z,10.98
2023-03-10T04:50:43.523Z,12.02
2023-03-10T04:54:08.188Z,13.77
2023-03-10T04:57:30.721Z,11.95
2023-03-10T05:01:03.113Z,14.95
2023-03-10T05:04:26.834Z,22.08
2023-03-10T05:07:50.339Z,18.98
2023-03-10T05:11:14.514Z,15.77
2023-03-10T05:14:38.120Z,15.90
2023-03-10T05:18:02.647Z,16.00
2023-03-10T05:21:25.716Z,13.57
2023-03-10T05:24:49.990Z,13.38
2023-03-10T05:28:13.392Z,16.27
2023-03-10T05:31:36.207Z,13.70
2023-03-10T05:35:01.256Z,15.68
2023-03-10T05:38:24.201Z,12.35
2023-03-10T05:41:47.330Z,13.23
2023-03-10T05:45:12.316Z,14.67
2023-03-10T05:48:35.507Z,14.13
2023-03-10T05:52:00.029Z,13.70
2023-03-10T05:55:25.275Z,12.98
2023-03-10T05:58:48.055Z,14.07
2023-03-10T06:02:11.823Z,15.87
2023-03-10T06:05:34.731Z,13.82
2023-03-10T06:08:58.793Z,13.13
2023-03-10T06:12:22.034Z,15.38
2023-03-10T06:15:44.341Z,14.60
2023-03-10T06:19:07.208Z,16.07
2023-03-10T06:22:31.387Z,15.10
2023-03-10T06:25:59.162Z,17.35
2023-03-10T06:29:21.808Z,14.18
2023-03-10T06:32:44.417Z,17.13
2023-03-10T06:36:08.200Z,16.67
2023-03-10T06:39:31.890Z,15.90
2023-03-10T06:42:55.585Z,17.55
2023-03-10T06:46:18.820Z,16.75
2023-03-10T06:49:41.581Z,16.57
2023-03-10T06:53:04.432Z,15.85
2023-03-10T06:56:28.978Z,15.25
2023-03-10T06:59:53.586Z,17.65
2023-03-10T07:03:16.113Z,15.23
2023-03-10T07:06:39.181Z,15.03
2023-03-10T07:10:01.550Z,18.50
2023-03-10T07:13:24.233Z,15.82
2023-03-10T07:16:51.177Z,15.30
2023-03-10T07:20:14.449Z,10.02
2023-03-10T07:23:36.916Z,12.07
2023-03-10T07:27:00.902Z,9.88
2023-03-10T07:30:25.454Z,11.38
2023-03-10T07:33:50.487Z,8.55
2023-03-10T07:37:12.730Z,8.43
2023-03-10T07:40:35.712Z,12.37
2023-03-10T07:43:58.276Z,9.73
2023-03-10T07:47:21.292Z,17.65
2023-03-10T07:50:45.138Z,8.10
2023-03-10T07:54:14.551Z,8.10
2023-03-10T07:57:43.020Z,8.27
2023-03-10T08:01:07.414Z,6.00
2023-03-10T08:04:34.165Z,8.15
2023-03-10T08:07:59.656Z,8.27
2023-03-10T08:11:27.503Z,8.32
2023-03-10T08:14:52.228Z,7.57
2023-03-10T08:18:16.765Z,6.05
2023-03-10T08:21:55.993Z,7.82
2023-03-10T08:25:35.887Z,8.48
2023-03-10T08:28:59.837Z,7.75
2023-03-10T08:32:23.950Z,7.30
2023-03-10T08:35:47.548Z,7.68
2023-03-10T08:39:18.338Z,7.20
2023-03-10T08:42:52.925Z,7.05
2023-03-10T08:46:20.721Z,6.28
2023-03-10T08:49:48.682Z,8.20
2023-03-10T08:53:13.836Z,8.68
2023-03-10T09:01:20.651Z,10.93
2023-03-10T09:08:39.232Z,10.10
2023-03-10T09:12:10.082Z,10.10
2023-03-10T09:15:43.737Z,10.00
2023-03-10T09:19:12.408Z,6.82
2023-03-10T09:22:39.693Z,9.68
2023-03-10T09:26:04.221Z,8.97
2023-03-10T09:29:42.070Z,6.05
2023-03-10T09:33:08.007Z,6.97
2023-03-10T09:36:33.561Z,8.05
2023-03-10T09:39:58.201Z,6.37
2023-03-10T09:43:25.029Z,7.10
2023-03-10T09:46:51.690Z,4.20
2023-03-10T09:50:24.223Z,6.35
2023-03-10T09:54:03.929Z,5.60
2023-03-10T09:57:27.569Z,6.32
2023-03-10T10:00:51.325Z,7.00
2023-03-10T10:04:17.410Z,5.55
2023-03-10T10:07:54.505Z,10.20
2023-03-10T10:11:39.020Z,5.40
2023-03-10T10:15:08.007Z,4.45
2023-03-10T10:18:33.550Z,4.97
2023-03-10T10:22:00.268Z,4.37
2023-03-10T10:25:23.942Z,5.45
2023-03-10T10:28:51.034Z,4.78
2023-03-10T10:32:14.959Z,6.25
2023-03-10T10:35:39.564Z,5.47
2023-03-10T10:39:03.257Z,4.50
2023-03-10T10:42:27.959Z,8.95
2023-03-10T10:46:08.637Z,4.97
2023-03-10T10:49:34.501Z,5.50
2023-03-10T10:53:17.965Z,4.43
2023-03-10T10:56:43.790Z,5.62
2023-03-10T11:00:25.742Z,4.35
2023-03-10T11:03:51.358Z,6.10
2023-03-10T11:07:18.095Z,7.57
2023-03-10T11:10:41.673Z,5.77
2023-03-10T11:14:12.457Z,4.82
2023-03-10T11:17:40.355Z,5.12
2023-03-10T11:21:12.778Z,6.05
2023-03-10T11:24:39.555Z,7.20
2023-03-10T11:28:21.190Z,6.03
2023-03-10T11:31:50.877Z,6.00
2023-03-10T11:35:24.019Z,6.85
2023-03-10T11:38:53.250Z,6.07
2023-03-10T11:42:25.221Z,6.10
2023-03-10T11:46:02.467Z,5.50
2023-03-10T11:49:27.894Z,13.07
2023-03-10T11:52:52.132Z,5.82
2023-03-10T11:56:17.854Z,4.37
2023-03-10T11:59:48.084Z,4.00
2023-03-10T12:03:18.664Z,6.30
2023-03-10T12:06:45.742Z,5.97
2023-03-10T12:10:15.867Z,5.93
2023-03-10T12:13:44.051Z,7.43
2023-03-10T12:17:07.518Z,6.53
2023-03-10T12:20:31.628Z,4.87
2023-03-10T12:23:55.583Z,5.20
2023-03-10T12:27:19.481Z,4.68
2023-03-10T12:30:47.648Z,9.20
2023-03-10T12:34:15.534Z,11.45
2023-03-10T12:37:38.870Z,6.00
2023-03-10T12:41:02.973Z,6.30
2023-03-10T12:44:37.499Z,6.57
2023-03-10T12:48:03.848Z,7.05
2023-03-10T12:51:26.891Z,6.28
2023-03-10T12:54:54.066Z,6.50
2023-03-10T12:58:18.651Z,6.55
2023-03-10T13:01:55.147Z,5.30
2023-03-10T13:05:24.840Z,5.87
2023-03-10T13:08:49.029Z,5.07
2023-03-10T13:12:18.376Z,5.10
2023-03-10T13:15:44.818Z,5.43
2023-03-10T13:19:41.162Z,5.65
2023-03-10T13:23:28.189Z,5.43
2023-03-10T13:31:34.212Z,7.13
2023-03-10T13:34:58.100Z,5.35
2023-03-10T13:38:24.874Z,4.97
2023-03-10T13:41:49.582Z,4.47
2023-03-10T13:45:23.861Z,5.85
2023-03-10T13:49:15.140Z,4.73
2023-03-10T13:52:39.909Z,3.87
2023-03-10T13:56:18.494Z,16.08
2023-03-10T13:59:46.984Z,5.05
2023-03-10T14:03:17.649Z,15.73
2023-03-10T14:06:42.450Z,5.17
2023-03-10T14:10:21.444Z,5.22
2023-03-10T14:13:54.980Z,4.78
2023-03-10T14:17:39.505Z,5.57
2023-03-10T14:21:25.035Z,6.22
2023-03-10T14:24:48.978Z,5.03
2023-03-10T14:31:41.646Z,4.80
2023-03-10T14:35:11.051Z,3.40
2023-03-10T14:38:35.056Z,5.05
2023-03-10T14:46:58.194Z,7.30
2023-03-10T14:50:24.474Z,7.05
2023-03-10T14:53:50.835Z,5.95
2023-03-10T14:57:15.725Z,8.77
2023-03-10T15:00:39.701Z,17.00
2023-03-10T15:04:03.961Z,3.53
2023-03-10T15:07:28.755Z,4.25
2023-03-10T15:10:52.739Z,4.70
2023-03-10T15:14:18.154Z,5.03
2023-03-10T15:17:45.458Z,4.87
2023-03-10T15:21:10.891Z,4.62
2023-03-10T15:24:37.491Z,5.30
2023-03-10T15:28:02.009Z,5.22
2023-03-10T15:31:26.635Z,7.12
2023-03-10T15:34:51.299Z,6.97
2023-03-10T15:38:17.211Z,5.22
2023-03-10T15:41:43.230Z,5.12
2023-03-10T15:45:09.449Z,9.50
2023-03-10T15:48:34.863Z,7.28
2023-03-10T15:51:59.517Z,9.37
2023-03-10T15:55:24.111Z,6.68
2023-03-10T15:58:50.545Z,7.18
2023-03-10T16:02:16.494Z,5.87
2023-03-10T16:05:50.394Z,7.25
2023-03-10T16:09:17.720Z,6.00
2023-03-10T16:12:43.994Z,6.12
2023-03-10T16:16:11.367Z,6.90
2023-03-10T16:19:39.121Z,5.97
2023-03-10T16:23:04.199Z,8.13
2023-03-10T16:26:29.953Z,7.27
2023-03-10T16:29:53.720Z,5.95
2023-03-10T16:33:20.073Z,7.93
2023-03-10T16:36:44.568Z,5.80
2023-03-10T16:40:10.595Z,5.43
2023-03-10T16:43:37.948Z,8.67
2023-03-10T16:47:05.438Z,8.30
2023-03-10T16:50:34.177Z,5.57
2023-03-10T16:54:00.240Z,9.27
2023-03-10T16:57:30.572Z,9.60
2023-03-10T17:00:56.384Z,6.47
2023-03-10T17:04:28.463Z,11.45
2023-03-10T17:07:56.346Z,9.88
2023-03-10T17:11:26.677Z,7.22
2023-03-10T17:14:51.874Z,8.15
2023-03-10T17:18:27.128Z,7.10
2023-03-10T17:21:53.773Z,6.37
2023-03-10T17:25:22.573Z,7.78
2023-03-10T17:28:51.672Z,10.98
2023-03-10T17:32:18.038Z,14.43
2023-03-10T17:35:42.542Z,10.57
2023-03-10T17:39:08.481Z,16.50
2023-03-10T17:42:36.182Z,11.45
2023-03-10T17:46:03.932Z,7.93
2023-03-10T17:49:30.429Z,19.85
2023-03-10T17:52:58.227Z,8.57
2023-03-10T17:56:24.228Z,7.97
2023-03-10T17:59:52.079Z,8.00
2023-03-10T18:03:23.605Z,10.98
2023-03-10T18:06:49.716Z,9.02
2023-03-10T18:10:18.155Z,7.93
2023-03-10T18:18:06.723Z,6.50
2023-03-10T18:21:34.088Z,10.98
2023-03-10T18:25:03.424Z,7.22
2023-03-10T18:28:34.221Z,14.50
2023-03-10T18:32:04.115Z,18.92
2023-03-10T18:35:34.110Z,14.87
2023-03-10T18:39:08.275Z,8.45
2023-03-10T18:42:35.876Z,8.98
2023-03-10T18:46:05.172Z,6.67
2023-03-10T18:49:33.360Z,8.32
2023-03-10T18:53:03.175Z,12.02
2023-03-10T18:56:32.590Z,11.40
2023-03-10T19:00:15.664Z,8.02
2023-03-10T19:03:49.328Z,8.97
2023-03-10T19:07:15.647Z,7.90
2023-03-10T19:10:47.053Z,7.75
2023-03-10T19:14:15.026Z,14.57
2023-03-10T19:17:41.349Z,11.93
2023-03-10T19:21:06.554Z,10.67
2023-03-10T19:24:40.536Z,10.52
2023-03-10T19:28:09.764Z,13.27
2023-03-10T19:31:35.566Z,17.58
2023-03-10T19:35:03.279Z,12.75
2023-03-10T19:38:31.818Z,21.73
2023-03-10T19:42:02.503Z,19.00
2023-03-10T19:49:09.898Z,19.45
2023-03-10T19:52:40.117Z,17.80
2023-03-10T19:56:12.430Z,20.07
2023-03-10T19:59:43.809Z,20.05
2023-03-10T20:03:13.511Z,21.77
2023-03-10T20:06:45.706Z,18.55
2023-03-10T20:10:22.797Z,17.80
2023-03-10T20:13:52.552Z,17.87
2023-03-10T20:17:23.582Z,17.15
2023-03-10T20:20:51.606Z,15.27
2023-03-10T20:24:17.197Z,13.07
2023-03-10T20:27:50.278Z,13.70
2023-03-10T20:31:19.288Z,12.07
2023-03-10T20:34:44.865Z,21.67
2023-03-10T20:38:14.245Z,23.92
2023-03-10T20:41:45.919Z,17.17
2023-03-10T20:45:24.976Z,21.83
2023-03-10T20:48:51.765Z,47.60
2023-03-10T20:52:20.364Z,35.05
2023-03-10T20:55:47.845Z,38.90
2023-03-10T20:59:13.901Z,18.52
2023-03-10T21:02:39.712Z,42.78
2023-03-10T21:06:04.739Z,28.93
2023-03-10T21:09:34.971Z,17.35
2023-03-10T21:13:02.122Z,14.15
2023-03-10T21:16:26.118Z,16.42
2023-03-10T21:19:53.166Z,16.62
2023-03-10T21:23:18.208Z,14.50
2023-03-10T21:26:43.068Z,20.48
2023-03-10T21:30:11.294Z,15.10
2023-03-10T21:33:35.488Z,16.02
2023-03-10T21:37:00.293Z,14.20
2023-03-10T21:40:25.004Z,14.30
2023-03-10T21:43:50.769Z,12.85
2023-03-10T21:47:16.865Z,13.77
2023-03-10T21:50:41.088Z,14.10
2023-03-10T21:54:05.329Z,14.45
2023-03-10T21:57:29.261Z,13.95
2023-03-10T22:00:56.073Z,38.47
2023-03-10T22:04:22.138Z,18.52
2023-03-10T22:07:46.132Z,16.10
2023-03-10T22:11:11.300Z,15.27
2023-03-10T22:14:35.083Z,15.15
2023-03-10T22:18:03.118Z,14.90
2023-03-10T22:21:28.624Z,15.63
2023-03-10T22:24:54.115Z,18.40
2023-03-10T22:28:17.898Z,20.15
2023-03-10T22:31:41.643Z,19.98
2023-03-10T22:35:10.196Z,19.48
2023-03-10T22:38:36.191Z,21.98
2023-03-10T22:42:00.321Z,20.97
2023-03-10T22:45:25.589Z,20.65
2023-03-10T22:48:49.420Z,22.92
2023-03-10T22:52:13.680Z,22.55
2023-03-10T22:55:44.058Z,22.83
2023-03-10T22:59:08.983Z,17.90
2023-03-10T23:02:33.153Z,21.20
2023-03-10T23:06:14.492Z,20.25
2023-03-10T23:09:39.444Z,17.05
2023-03-10T23:13:09.365Z,16.00
2023-03-10T23:16:36.726Z,14.45
2023-03-10T23:20:02.247Z,17.30
2023-03-10T23:23:26.623Z,15.80
2023-03-10T23:26:50.861Z,15.75
2023-03-10T23:30:16.575Z,15.70
2023-03-10T23:33:41.385Z,13.88
2023-03-10T23:37:05.987Z,13.05
2023-03-10T23:40:30.804Z,7.43
2023-03-10T23:43:54.486Z,5.93
2023-03-10T23:47:20.276Z,3.00
2023-03-10T23:50:44.366Z,2.60
2023-03-10T23:54:08.951Z,2.75
2023-03-10T23:57:33.633Z,2.78
